Time;durP1;ratioP1;P1;durP2;ratioP2;P2;SDS_P1;SDS_P2;PMS_P1;PMS_P2;Temp;Humidity;BMP_temperature;BMP_pressure;BME280_temperature;BME280_humidity;BME280_pressure;Samples;Min_cycle;Max_cycle;Signal;HPM_P1;HPM_P2
2022/04/27 00:00:51;;;;;;;0.10;0.10;;;;;;;13.05;46.30;97558.47;5072270;28;20113;-62
2022/04/27 00:03:16;;;;;;;0.20;0.20;;;;;;;13.01;46.29;97557.38;5071777;28;20041;-62
2022/04/27 00:05:43;;;;;;;0.30;0.30;;;;;;;12.95;46.64;97551.06;5072067;28;20082;-62
2022/04/27 00:08:09;;;;;;;0.10;0.10;;;;;;;12.92;46.68;97557.16;5072521;28;20060;-62
2022/04/27 00:10:34;;;;;;;0.20;0.20;;;;;;;12.90;46.80;97556.63;5054390;28;20040;-62
2022/04/27 00:13:00;;;;;;;2.30;0.73;;;;;;;12.86;46.57;97552.75;5072173;28;20093;-65
2022/04/27 00:15:28;;;;;;;0.32;0.30;;;;;;;12.80;46.71;97561.03;5072137;28;20097;-62
2022/04/27 00:17:54;;;;;;;0.10;0.10;;;;;;;12.77;46.92;97563.53;5072329;28;20045;-62
2022/04/27 00:20:19;;;;;;;0.17;0.17;;;;;;;12.76;46.62;97559.97;5072007;28;20047;-61
2022/04/27 00:22:45;;;;;;;0.30;0.30;;;;;;;12.76;46.50;97564.63;5072009;28;20049;-63
2022/04/27 00:25:11;;;;;;;0.25;0.25;;;;;;;12.73;46.65;97568.75;5071996;28;20487;-63
2022/04/27 00:27:36;;;;;;;0.10;0.10;;;;;;;12.74;46.63;97572.34;5072316;28;20124;-63
2022/04/27 00:30:03;;;;;;;0.47;0.47;;;;;;;12.77;46.49;97571.78;5071905;28;20055;-62
2022/04/27 00:32:28;;;;;;;0.10;0.10;;;;;;;12.83;46.52;97578.94;5071945;28;20044;-63
2022/04/27 00:34:54;;;;;;;0.20;0.20;;;;;;;12.91;46.31;97580.28;5071486;28;20062;-61
2022/04/27 00:37:20;;;;;;;0.20;0.20;;;;;;;12.98;45.95;97569.78;5072136;28;20109;-61
2022/04/27 00:39:46;;;;;;;0.10;0.10;;;;;;;13.07;46.01;97575.56;5071858;28;20071;-61
2022/04/27 00:42:20;;;;;;;0.20;0.20;;;;;;;13.18;45.88;97573.59;5072129;28;20064;-62
2022/04/27 00:44:46;;;;;;;0.63;0.60;;;;;;;13.28;45.78;97579.88;5071937;28;20042;-62
2022/04/27 00:47:13;;;;;;;0.20;0.20;;;;;;;13.44;45.63;97571.53;5071532;28;20481;-62
2022/04/27 00:49:45;;;;;;;0.65;0.55;;;;;;;13.56;45.09;97574.81;5071979;28;20107;-62
2022/04/27 00:52:12;;;;;;;0.10;0.10;;;;;;;13.69;44.91;97573.31;5071937;28;20048;-62
2022/04/27 00:54:47;;;;;;;0.20;0.20;;;;;;;13.82;44.65;97571.88;5073827;28;20492;-62
2022/04/27 00:57:13;;;;;;;0.20;0.20;;;;;;;13.96;44.55;97563.78;5075561;28;20510;-62
2022/04/27 00:59:39;;;;;;;0.13;0.13;;;;;;;14.14;44.42;97567.78;5075709;28;20047;-62
2022/04/27 01:02:05;;;;;;;0.15;0.15;;;;;;;14.31;44.25;97570.09;5076031;28;20594;-64
2022/04/27 01:04:36;;;;;;;0.10;0.10;;;;;;;14.47;44.12;97570.78;5075290;28;20040;-61
2022/04/27 01:07:03;;;;;;;0.20;0.20;;;;;;;14.59;43.61;97556.59;5075780;28;20052;-62
2022/04/27 01:09:30;;;;;;;0.50;0.50;;;;;;;14.69;43.48;97575.84;5075874;28;20048;-63
2022/04/27 01:12:01;;;;;;;0.30;0.30;;;;;;;14.83;43.75;97578.75;5075523;28;20066;-61
2022/04/27 01:14:27;;;;;;;0.10;0.10;;;;;;;14.99;43.14;97571.94;5075770;28;20453;-62
2022/04/27 01:16:57;;;;;;;0.10;0.10;;;;;;;15.27;42.75;97572.16;5080732;28;20044;-59
2022/04/27 01:19:26;;;;;;;0.10;0.10;;;;;;;15.67;42.35;97578.25;5094676;28;20417;-62
2022/04/27 01:21:52;;;;;;;0.20;0.20;;;;;;;16.03;41.65;97577.78;5095575;28;20128;-62
2022/04/27 01:24:24;;;;;;;0.10;0.10;;;;;;;16.32;41.27;97573.97;5095450;28;20044;-61
2022/04/27 01:27:29;;;;;;;0.10;0.10;;;;;;;16.74;40.78;97572.13;5087269;28;20040;-62
2022/04/27 01:30:35;;;;;;;1.20;0.28;;;;;;;16.43;41.45;97580.16;5095333;28;20048;-62
2022/04/27 01:33:40;;;;;;;0.20;0.20;;;;;;;15.99;42.35;97575.88;5076885;28;20067;-63
2022/04/27 01:36:46;;;;;;;0.10;0.10;;;;;;;15.60;43.37;97580.56;5095134;28;20052;-64
2022/04/27 01:39:11;;;;;;;0.22;0.22;;;;;;;15.32;43.74;97585.91;5094107;28;20046;-65
2022/04/27 01:41:37;;;;;;;1.10;0.50;;;;;;;15.13;44.15;97558.22;5094926;28;20393;-62
2022/04/27 01:44:04;;;;;;;0.43;0.43;;;;;;;14.99;44.32;97577.47;5095293;28;20163;-65
2022/04/27 01:46:30;;;;;;;0.20;0.20;;;;;;;14.89;44.58;97589.44;5095298;28;20040;-72
2022/04/27 01:48:56;;;;;;;0.10;0.10;;;;;;;14.80;45.00;97584.88;5095154;28;20502;-62
2022/04/27 01:54:16;;;;;;;0.20;0.20;;;;;;;14.58;45.13;97577.88;5092366;28;20070;-62
2022/04/27 01:56:45;;;;;;;0.15;0.15;;;;;;;14.52;45.23;97576.28;5093763;28;20044;-63
2022/04/27 01:59:12;;;;;;;0.40;0.40;;;;;;;14.50;45.48;97570.19;5075877;28;20146;-66
2022/04/27 02:01:39;;;;;;;0.43;0.43;;;;;;;14.50;45.63;97564.69;5093677;28;20102;-65
2022/04/27 02:04:05;;;;;;;0.55;0.30;;;;;;;14.50;45.34;97575.72;5093970;28;20119;-67
2022/04/27 02:06:31;;;;;;;0.10;0.10;;;;;;;14.48;45.65;97573.25;5093164;28;20387;-63
2022/04/27 02:16:22;;;;;;;0.40;0.40;;;;;;;14.23;46.25;97555.00;5075265;28;20162;-65
2022/04/27 02:19:27;;;;;;;1.10;0.40;;;;;;;14.07;46.62;97568.09;5076979;28;20048;-64
2022/04/27 02:22:12;;;;;;;;;;;;;;;13.97;46.73;97568.16;5089876;28;20044;-63
2022/04/27 02:28:40;;;;;;;0.38;0.30;;;;;;;14.85;44.85;97555.22;5077515;28;20043;-63
2022/04/27 02:31:27;;;;;;;;;;;;;;;16.50;41.68;97550.09;5074133;28;20067;-65
2022/04/27 02:41:19;;;;;;;0.10;0.10;;;;;;;21.93;34.82;97532.44;5083509;28;20138;-68
2022/04/27 02:47:48;;;;;;;0.20;0.20;;;;;;;21.59;36.42;97551.88;5079482;28;20435;-65
2022/04/27 02:52:58;;;;;;;0.10;0.10;;;;;;;19.71;39.74;97564.41;5088154;28;20159;-62
2022/04/27 02:55:23;;;;;;;0.10;0.10;;;;;;;18.93;41.09;97562.22;5080287;28;20063;-62
2022/04/27 02:57:49;;;;;;;0.10;0.10;;;;;;;18.28;42.32;97559.69;5088819;28;20127;-64
2022/04/27 03:00:16;;;;;;;0.10;0.10;;;;;;;17.80;43.05;97552.75;5081180;28;20198;-66
2022/04/27 03:02:42;;;;;;;0.30;0.30;;;;;;;17.55;43.42;97554.16;5084733;28;20038;-61
2022/04/27 03:05:08;;;;;;;0.20;0.20;;;;;;;17.30;43.90;97558.31;5082158;28;20096;-66
2022/04/27 03:07:33;;;;;;;0.20;0.20;;;;;;;17.09;44.09;97557.91;5076805;28;20422;-64
2022/04/27 03:09:59;;;;;;;0.38;0.38;;;;;;;16.82;44.59;97562.28;5078781;28;20060;-61
2022/04/27 03:12:25;;;;;;;0.50;0.50;;;;;;;16.64;44.75;97548.19;5087316;28;20131;-63
2022/04/27 03:14:51;;;;;;;0.20;0.20;;;;;;;16.58;44.58;97557.72;5069747;28;20075;-64
2022/04/27 03:17:16;;;;;;;0.20;0.20;;;;;;;16.45;44.63;97551.00;5089366;28;20052;-64
2022/04/27 03:19:42;;;;;;;0.10;0.10;;;;;;;16.19;45.00;97558.13;5087850;28;20062;-62
2022/04/27 03:22:08;;;;;;;0.10;0.10;;;;;;;15.90;45.67;97546.13;5082272;28;20052;-62
2022/04/27 03:24:34;;;;;;;2.08;0.20;;;;;;;15.59;45.83;97534.66;5082366;28;20044;-63
2022/04/27 03:27:00;;;;;;;0.10;0.10;;;;;;;15.37;46.38;97546.28;5082800;28;20048;-66
2022/04/27 03:29:26;;;;;;;1.17;0.50;;;;;;;15.18;46.64;97541.56;5083591;28;20422;-63
2022/04/27 03:31:52;;;;;;;0.30;0.30;;;;;;;15.05;46.78;97539.53;5087716;28;20074;-63
2022/04/27 03:34:17;;;;;;;0.47;0.47;;;;;;;14.92;46.80;97546.59;5068926;28;20424;-64
2022/04/27 03:36:43;;;;;;;0.17;0.17;;;;;;;14.76;47.18;97531.31;5078294;28;20051;-63
2022/04/27 03:39:09;;;;;;;0.20;0.20;;;;;;;14.65;47.31;97542.47;5079041;28;20044;-63
2022/04/27 03:41:34;;;;;;;0.20;0.20;;;;;;;14.60;47.14;97548.00;5085108;28;20040;-63
2022/04/27 03:44:00;;;;;;;0.10;0.10;;;;;;;14.63;47.40;97539.16;5075440;28;20098;-61
2022/04/27 03:46:26;;;;;;;0.10;0.10;;;;;;;14.68;47.32;97544.66;5080469;28;20048;-63
2022/04/27 03:48:52;;;;;;;0.10;0.10;;;;;;;14.79;46.89;97539.00;5085295;28;20168;-63
2022/04/27 03:51:17;;;;;;;0.40;0.40;;;;;;;14.93;46.74;97530.81;5082229;28;20040;-61
2022/04/27 03:53:44;;;;;;;0.20;0.20;;;;;;;15.02;46.38;97543.72;5074216;28;20047;-62
2022/04/27 03:56:10;;;;;;;0.10;0.10;;;;;;;15.03;46.24;97534.31;5076737;28;20040;-63
2022/04/27 03:58:36;;;;;;;0.10;0.10;;;;;;;14.98;46.38;97531.59;5084689;28;20141;-63
2022/04/27 04:01:01;;;;;;;0.10;0.10;;;;;;;14.94;46.59;97532.47;5081259;28;20132;-63
2022/04/27 04:03:27;;;;;;;0.28;0.28;;;;;;;14.96;46.76;97538.53;5073971;28;20044;-63
2022/04/27 04:05:53;;;;;;;0.10;0.10;;;;;;;14.98;46.76;97537.13;5082582;28;20055;-64
2022/04/27 04:08:19;;;;;;;0.17;0.17;;;;;;;15.03;46.83;97530.69;5087098;28;20056;-63
2022/04/27 04:10:45;;;;;;;0.10;0.10;;;;;;;15.03;46.81;97539.84;5082972;28;20105;-63
2022/04/27 04:13:13;;;;;;;0.17;0.17;;;;;;;15.02;46.70;97537.38;5079856;28;20457;-64
2022/04/27 04:15:46;;;;;;;0.77;0.45;;;;;;;14.96;46.90;97533.00;5078633;28;20067;-63
2022/04/27 04:18:12;;;;;;;0.15;0.15;;;;;;;14.93;46.94;97534.44;5054561;28;20032;-63
2022/04/27 04:20:37;;;;;;;0.20;0.20;;;;;;;14.93;47.28;97520.59;5079520;28;20075;-63
2022/04/27 04:23:04;;;;;;;0.13;0.13;;;;;;;14.91;47.12;97514.53;5085117;28;20076;-62
2022/04/27 04:28:32;;;;;;;0.20;0.20;;;;;;;14.70;47.57;97541.59;5080667;28;20162;-63
2022/04/27 04:31:03;;;;;;;0.15;0.15;;;;;;;14.55;48.25;97529.56;5087933;28;20036;-62
2022/04/27 04:33:29;;;;;;;0.20;0.20;;;;;;;14.44;48.21;97543.75;5082335;28;20422;-63
2022/04/27 04:35:56;;;;;;;0.10;0.10;;;;;;;14.39;48.57;97530.00;5086628;28;20055;-65
2022/04/27 04:38:22;;;;;;;0.10;0.10;;;;;;;14.38;48.32;97529.16;5077535;28;20072;-62
2022/04/27 04:40:47;;;;;;;0.30;0.30;;;;;;;14.36;48.70;97535.00;5081520;28;20545;-63
2022/04/27 04:43:14;;;;;;;0.40;0.40;;;;;;;14.41;48.41;97528.59;5076803;28;20058;-62
2022/04/27 04:45:40;;;;;;;0.10;0.10;;;;;;;14.50;48.16;97531.53;5071375;28;20048;-63
2022/04/27 04:48:06;;;;;;;0.20;0.20;;;;;;;14.66;48.11;97535.84;5083254;28;20040;-62
2022/04/27 04:50:31;;;;;;;0.20;0.20;;;;;;;14.85;47.84;97541.41;5069781;28;20044;-63
2022/04/27 04:52:57;;;;;;;0.30;0.30;;;;;;;15.19;47.28;97532.19;5082822;28;20097;-62
2022/04/27 04:55:23;;;;;;;0.10;0.10;;;;;;;15.58;46.39;97531.06;5079803;28;20040;-65
2022/04/27 04:57:48;;;;;;;0.17;0.17;;;;;;;15.77;46.33;97531.06;5086327;28;20059;-62
2022/04/27 05:00:14;;;;;;;0.30;0.30;;;;;;;15.81;46.37;97533.25;5080362;28;20032;-62
2022/04/27 05:02:40;;;;;;;0.20;0.20;;;;;;;15.74;46.45;97542.72;5068479;28;20047;-64
2022/04/27 05:05:06;;;;;;;0.20;0.20;;;;;;;15.61;46.93;97518.59;5076984;28;20715;-62
2022/04/27 05:07:33;;;;;;;0.17;0.17;;;;;;;15.69;46.86;97528.97;5075494;28;20052;-65
2022/04/27 05:09:59;;;;;;;0.15;0.15;;;;;;;15.83;46.77;97514.44;5082689;28;20480;-64
2022/04/27 05:12:25;;;;;;;1.75;0.85;;;;;;;15.90;46.68;97517.59;5076102;28;20047;-62
2022/04/27 05:14:51;;;;;;;0.10;0.10;;;;;;;15.96;46.82;97510.88;5086086;28;20044;-65
2022/04/27 05:17:17;;;;;;;0.40;0.32;;;;;;;16.06;46.63;97516.25;5086347;28;20048;-64
2022/04/27 05:19:43;;;;;;;0.20;0.20;;;;;;;16.28;46.31;97510.06;5082293;28;20055;-61
2022/04/27 05:22:08;;;;;;;0.10;0.10;;;;;;;16.62;45.79;97516.34;5083013;28;20496;-65
2022/04/27 05:24:35;;;;;;;1.65;1.05;;;;;;;16.96;45.00;97504.06;5080253;28;20047;-63
2022/04/27 05:27:01;;;;;;;0.30;0.30;;;;;;;17.27;44.80;97501.50;5080807;28;20055;-62
2022/04/27 05:32:12;;;;;;;0.82;0.82;;;;;;;17.82;43.90;97499.69;5080200;28;20113;-63
2022/04/27 05:34:38;;;;;;;0.20;0.20;;;;;;;18.14;43.76;97489.50;5081703;28;20036;-64
2022/04/27 05:37:05;;;;;;;1.10;1.00;;;;;;;18.35;43.49;97487.81;5071889;28;20047;-63
2022/04/27 05:39:31;;;;;;;0.20;0.20;;;;;;;18.62;43.29;97494.31;5084134;28;20048;-63
2022/04/27 05:41:57;;;;;;;0.25;0.20;;;;;;;18.72;43.28;97504.34;5081656;28;20047;-65
2022/04/27 05:44:24;;;;;;;0.28;0.28;;;;;;;18.69;43.47;97500.25;5089595;28;20135;-64
2022/04/27 05:46:51;;;;;;;0.10;0.10;;;;;;;18.62;44.00;97505.44;5073033;28;20417;-62
2022/04/27 05:49:17;;;;;;;0.10;0.10;;;;;;;18.60;43.93;97495.81;5093664;28;20067;-65
2022/04/27 05:51:43;;;;;;;0.30;0.30;;;;;;;18.80;43.65;97489.69;5084544;28;20516;-64
2022/04/27 05:54:09;;;;;;;3.03;0.28;;;;;;;18.97;43.50;97504.81;5080105;28;20031;-64
2022/04/27 05:56:35;;;;;;;0.17;0.17;;;;;;;18.89;43.64;97501.69;5084376;28;20044;-65
2022/04/27 05:59:01;;;;;;;0.22;0.22;;;;;;;18.88;43.79;97502.81;5080791;28;20040;-63
2022/04/27 06:01:28;;;;;;;0.20;0.20;;;;;;;19.15;43.35;97506.50;5087694;28;20068;-65
2022/04/27 06:03:54;;;;;;;0.30;0.30;;;;;;;19.57;42.65;97508.88;5079718;28;20110;-65
2022/04/27 06:06:23;;;;;;;0.40;0.30;;;;;;;19.71;42.43;97514.28;5075085;28;20063;-62
2022/04/27 06:08:50;;;;;;;3.65;0.28;;;;;;;19.86;42.52;97493.50;5091486;28;20071;-64
2022/04/27 06:11:16;;;;;;;0.20;0.20;;;;;;;19.81;42.56;97514.00;5082642;28;20044;-63
2022/04/27 06:13:43;;;;;;;0.10;0.10;;;;;;;19.72;42.88;97507.56;5085333;28;20040;-64
2022/04/27 06:16:09;;;;;;;0.22;0.22;;;;;;;19.61;43.13;97512.66;5089359;28;20591;-63
2022/04/27 06:18:35;;;;;;;0.10;0.10;;;;;;;19.55;43.25;97512.00;5083541;28;20032;-65
2022/04/27 06:21:01;;;;;;;0.10;0.10;;;;;;;19.36;43.65;97505.88;5080271;28;20466;-64
2022/04/27 06:23:27;;;;;;;0.52;0.28;;;;;;;19.16;44.06;97521.25;5085103;28;20396;-63
2022/04/27 06:25:53;;;;;;;0.73;0.73;;;;;;;19.14;44.20;97507.66;5080363;28;20056;-63
2022/04/27 06:28:19;;;;;;;0.10;0.10;;;;;;;19.12;44.12;97509.09;5079250;28;20041;-64
2022/04/27 06:30:45;;;;;;;0.70;0.63;;;;;;;19.10;44.26;97512.22;5080950;28;20517;-64
2022/04/27 06:33:11;;;;;;;0.32;0.32;;;;;;;19.16;44.02;97498.97;5085516;28;20044;-64
2022/04/27 06:35:37;;;;;;;0.10;0.10;;;;;;;19.04;44.31;97499.59;5086973;28;20544;-62
2022/04/27 06:38:03;;;;;;;0.25;0.25;;;;;;;18.92;44.32;97511.34;5083597;28;20139;-64
2022/04/27 06:40:29;;;;;;;0.10;0.10;;;;;;;18.95;44.31;97518.19;5082018;28;20103;-63
2022/04/27 06:42:56;;;;;;;0.20;0.20;;;;;;;19.18;43.81;97510.59;5081002;28;20040;-64
2022/04/27 06:45:27;;;;;;;0.10;0.10;;;;;;;19.39;43.63;97508.84;5079714;28;20079;-63
2022/04/27 06:47:56;;;;;;;0.10;0.10;;;;;;;19.54;43.26;97515.91;5081591;28;20037;-64
2022/04/27 06:50:22;;;;;;;0.10;0.10;;;;;;;19.75;42.89;97513.28;5077015;28;20079;-64
2022/04/27 06:52:48;;;;;;;0.17;0.17;;;;;;;19.72;43.07;97496.44;5078217;28;20063;-63
2022/04/27 06:55:16;;;;;;;0.20;0.20;;;;;;;19.67;43.26;97507.72;5079828;28;20105;-62
2022/04/27 06:57:42;;;;;;;1.73;0.75;;;;;;;19.92;42.69;97492.19;5082882;28;20041;-71
2022/04/27 07:00:08;;;;;;;0.30;0.30;;;;;;;20.22;42.50;97486.75;5088976;28;20051;-63
2022/04/27 07:02:35;;;;;;;0.10;0.10;;;;;;;20.44;41.95;97482.94;5084315;28;20502;-63
2022/04/27 07:05:02;;;;;;;0.13;0.13;;;;;;;20.43;41.91;97490.47;5081770;28;20044;-64
2022/04/27 07:07:28;;;;;;;0.20;0.20;;;;;;;20.34;42.16;97502.78;5079613;28;20094;-64
2022/04/27 07:09:55;;;;;;;0.10;0.10;;;;;;;20.35;42.24;97504.44;5082652;28;20032;-64
2022/04/27 07:12:21;;;;;;;0.10;0.10;;;;;;;20.29;42.38;97501.81;5094224;28;20040;-65
2022/04/27 07:14:48;;;;;;;1.85;0.95;;;;;;;20.42;42.24;97499.16;5093670;28;20042;-62
2022/04/27 07:17:14;;;;;;;13.77;0.73;;;;;;;20.71;41.57;97497.63;5092806;28;20401;-63
2022/04/27 07:19:40;;;;;;;0.38;0.32;;;;;;;20.81;41.41;97494.47;5093130;28;20101;-63
2022/04/27 07:22:06;;;;;;;0.10;0.10;;;;;;;20.82;41.44;97493.34;5093831;28;20123;-62
2022/04/27 07:24:32;;;;;;;2.08;0.80;;;;;;;20.92;41.42;97480.97;5093613;28;20498;-63
2022/04/27 07:26:58;;;;;;;0.22;0.22;;;;;;;20.85;41.54;97491.81;5093675;28;20040;-64
2022/04/27 07:29:24;;;;;;;0.73;0.60;;;;;;;20.60;42.05;97489.59;5093621;28;20047;-63
2022/04/27 07:31:50;;;;;;;0.10;0.10;;;;;;;20.34;42.43;97494.44;5094196;28;20114;-63
2022/04/27 07:34:17;;;;;;;0.45;0.45;;;;;;;20.44;42.31;97494.09;5093031;28;20040;-65
2022/04/27 07:36:42;;;;;;;0.10;0.10;;;;;;;20.75;41.72;97490.25;5093574;28;20113;-63
2022/04/27 07:39:08;;;;;;;0.10;0.10;;;;;;;20.98;41.28;97499.19;5093273;28;20489;-64
2022/04/27 07:41:34;;;;;;;0.10;0.10;;;;;;;21.20;40.90;97500.88;5093235;28;20422;-64
2022/04/27 07:44:00;;;;;;;0.10;0.10;;;;;;;21.32;40.67;97488.97;5093124;28;20097;-62
2022/04/27 07:46:26;;;;;;;0.20;0.20;;;;;;;21.26;40.97;97493.94;5092476;28;20052;-63
2022/04/27 07:48:52;;;;;;;0.40;0.40;;;;;;;21.07;41.17;97502.72;5092380;28;20125;-64
2022/04/27 07:51:18;;;;;;;0.28;0.28;;;;;;;21.00;41.42;97497.66;5091886;28;20040;-65
2022/04/27 07:53:44;;;;;;;0.10;0.10;;;;;;;21.07;41.26;97493.53;5091311;28;20052;-64
2022/04/27 07:56:10;;;;;;;0.35;0.30;;;;;;;21.21;41.06;97491.31;5091815;28;20518;-65
2022/04/27 07:58:36;;;;;;;0.10;0.10;;;;;;;21.09;41.29;97494.81;5091828;28;20574;-63
2022/04/27 08:01:02;;;;;;;0.20;0.20;;;;;;;21.00;41.32;97483.72;5092370;28;20467;-64
2022/04/27 08:03:28;;;;;;;0.10;0.10;;;;;;;21.12;41.42;97498.94;5091246;28;20464;-63
2022/04/27 08:05:54;;;;;;;0.30;0.30;;;;;;;21.11;41.17;97495.31;5091812;28;20529;-64
2022/04/27 08:08:20;;;;;;;0.20;0.20;;;;;;;21.05;41.37;97490.25;5092225;28;20048;-64
2022/04/27 08:10:46;;;;;;;0.10;0.10;;;;;;;20.86;41.85;97499.84;5091615;28;20139;-65
2022/04/27 08:13:11;;;;;;;0.20;0.20;;;;;;;20.67;42.15;97485.50;5091787;28;20062;-65
2022/04/27 08:15:37;;;;;;;0.13;0.13;;;;;;;20.40;42.57;97493.91;5091766;28;20031;-64
2022/04/27 08:18:06;;;;;;;0.10;0.10;;;;;;;20.09;43.05;97481.03;5090534;28;20101;-63
2022/04/27 08:23:23;;;;;;;0.10;0.10;;;;;;;20.38;42.12;97468.34;5091650;28;20532;-62
2022/04/27 08:25:50;;;;;;;0.40;0.20;;;;;;;20.64;41.79;97467.44;5083808;28;20534;-67
2022/04/27 08:28:17;;;;;;;0.10;0.10;;;;;;;20.82;41.44;97462.66;5071387;28;20526;-64
2022/04/27 08:30:45;;;;;;;0.20;0.20;;;;;;;20.93;41.28;97463.06;5071165;28;20142;-61
2022/04/27 08:33:12;;;;;;;0.10;0.10;;;;;;;20.91;41.29;97457.84;5070704;28;20072;-64
2022/04/27 08:35:37;;;;;;;0.20;0.20;;;;;;;21.00;41.07;97443.84;5071164;28;20040;-63
2022/04/27 08:38:05;;;;;;;0.98;0.43;;;;;;;20.98;41.29;97455.34;5070955;28;20049;-64
2022/04/27 08:40:31;;;;;;;0.20;0.20;;;;;;;20.97;41.17;97470.44;5070964;28;20045;-63
2022/04/27 08:43:01;;;;;;;0.10;0.10;;;;;;;21.08;41.09;97450.50;5071272;28;20052;-65
2022/04/27 08:45:28;;;;;;;0.10;0.10;;;;;;;21.08;41.15;97447.72;5070378;28;20047;-65
2022/04/27 08:47:55;;;;;;;0.10;0.10;;;;;;;21.07;41.04;97457.25;5068684;28;20058;-62
2022/04/27 08:50:23;;;;;;;0.10;0.10;;;;;;;21.18;40.90;97450.13;5070218;28;20036;-63
2022/04/27 08:52:49;;;;;;;0.20;0.20;;;;;;;21.31;40.81;97451.03;5070698;28;20047;-63
2022/04/27 08:55:16;;;;;;;0.10;0.10;;;;;;;21.27;40.74;97461.22;5070056;28;20056;-63
2022/04/27 08:57:45;;;;;;;0.60;0.28;;;;;;;21.19;40.97;97454.56;5066510;28;20090;-63
2022/04/27 09:00:16;;;;;;;0.30;0.30;;;;;;;21.23;40.90;97440.72;5070581;28;20041;-63
2022/04/27 09:02:42;;;;;;;0.10;0.10;;;;;;;21.29;40.64;97443.00;5070972;28;20040;-65
2022/04/27 09:05:19;;;;;;;0.20;0.20;;;;;;;21.31;40.50;97423.91;5069944;28;20083;-64
2022/04/27 09:07:51;;;;;;;0.30;0.30;;;;;;;21.37;40.56;97426.53;5070423;28;20526;-64
2022/04/27 09:10:18;;;;;;;0.10;0.10;;;;;;;21.45;40.60;97422.84;5070939;28;20106;-63
2022/04/27 09:12:57;;;;;;;0.22;0.20;;;;;;;21.43;40.34;97414.00;5070662;28;20040;-63
2022/04/27 09:15:25;;;;;;;0.20;0.20;;;;;;;21.29;40.62;97415.09;5072025;28;20041;-62
2022/04/27 09:20:57;;;;;;;0.35;0.35;;;;;;;21.60;40.30;97402.72;5073003;28;20047;-63
2022/04/27 09:23:41;;;;;;;0.20;0.20;;;;;;;21.77;39.62;97396.13;5074995;28;20483;-61
2022/04/27 09:26:22;;;;;;;0.10;0.10;;;;;;;21.77;39.76;97396.13;5075482;28;20054;-63
2022/04/27 09:28:53;;;;;;;0.20;0.20;;;;;;;21.84;39.52;97399.19;5075333;28;20047;-64
2022/04/27 09:31:32;;;;;;;0.10;0.10;;;;;;;21.87;39.55;97390.13;5075748;28;20049;-64
2022/04/27 09:34:27;;;;;;;0.10;0.10;;;;;;;21.83;39.67;97374.38;5056758;28;20529;-65
2022/04/27 09:36:54;;;;;;;0.20;0.20;;;;;;;21.83;39.69;97379.97;5075322;28;20044;-65
2022/04/27 09:39:25;;;;;;;0.20;0.20;;;;;;;21.82;39.37;97376.38;5075426;28;20052;-66
2022/04/27 09:41:51;;;;;;;0.20;0.20;;;;;;;21.66;39.70;97380.97;5075225;28;20071;-66
2022/04/27 09:44:30;;;;;;;0.20;0.20;;;;;;;21.38;40.45;97372.31;5075048;28;20043;-65
2022/04/27 09:46:58;;;;;;;0.90;0.30;;;;;;;21.24;40.30;97381.78;5075329;28;20462;-66
2022/04/27 09:49:23;;;;;;;0.63;0.63;;;;;;;21.25;40.32;97386.19;5075461;28;20141;-64
2022/04/27 09:51:54;;;;;;;0.15;0.15;;;;;;;21.44;39.88;97362.59;5075256;28;20099;-65
2022/04/27 09:54:25;;;;;;;0.52;0.43;;;;;;;21.68;39.67;97345.13;5075116;28;20090;-65
2022/04/27 09:56:56;;;;;;;0.10;0.10;;;;;;;21.79;39.44;97343.53;5075059;28;20032;-65
2022/04/27 09:59:29;;;;;;;0.10;0.10;;;;;;;21.81;39.25;97343.19;5075066;28;20036;-66
2022/04/27 10:01:58;;;;;;;0.10;0.10;;;;;;;21.81;39.36;97334.81;5074996;28;20512;-65
2022/04/27 10:04:28;;;;;;;0.10;0.10;;;;;;;22.10;38.71;97335.78;5074457;28;20056;-65
2022/04/27 10:06:59;;;;;;;0.35;0.35;;;;;;;22.34;38.30;97307.09;5075072;28;20503;-66
2022/04/27 10:09:29;;;;;;;0.10;0.10;;;;;;;22.29;38.50;97310.91;5074503;28;20090;-66
2022/04/27 10:11:56;;;;;;;0.20;0.20;;;;;;;22.10;38.73;97308.66;5075369;28;20044;-65
2022/04/27 10:14:22;;;;;;;0.10;0.10;;;;;;;22.09;38.49;97297.84;5074641;28;20045;-66
2022/04/27 10:16:50;;;;;;;0.30;0.30;;;;;;;22.11;38.44;97290.72;5075033;28;20036;-64
2022/04/27 10:19:17;;;;;;;0.10;0.10;;;;;;;22.19;38.48;97297.38;5074723;28;20037;-64
2022/04/27 10:21:56;;;;;;;2.55;0.82;;;;;;;22.32;38.14;97284.22;5074635;28;20177;-64
2022/04/27 10:24:34;;;;;;;0.30;0.30;;;;;;;22.36;38.03;97293.56;5074264;28;20057;-64
2022/04/27 10:27:26;;;;;;;0.30;0.30;;;;;;;22.22;38.18;97296.69;5073310;28;20041;-66
2022/04/27 10:30:00;;;;;;;1.90;1.80;;;;;;;22.14;38.41;97292.84;5074520;28;20439;-64
2022/04/27 10:32:41;;;;;;;0.47;0.47;;;;;;;22.26;38.28;97306.00;5074336;28;20044;-64
2022/04/27 10:35:12;;;;;;;0.30;0.30;;;;;;;22.45;37.76;97290.63;5074099;28;20123;-64
2022/04/27 10:38:14;;;;;;;0.10;0.10;;;;;;;22.30;38.07;97300.53;5074331;28;20410;-66
2022/04/27 10:40:42;;;;;;;0.30;0.30;;;;;;;22.11;38.33;97304.69;5071622;28;20621;-64
2022/04/27 10:43:08;;;;;;;0.85;0.85;;;;;;;21.96;38.29;97297.00;5074131;28;20048;-63
2022/04/27 10:45:44;;;;;;;0.10;0.10;;;;;;;21.77;38.53;97319.91;5074610;28;20044;-65
2022/04/27 10:48:48;;;;;;;0.22;0.22;;;;;;;21.65;38.44;97323.47;5074584;28;20071;-65
2022/04/27 10:51:13;;;;;;;0.10;0.10;;;;;;;21.59;38.75;97333.22;5074115;28;20055;-64
2022/04/27 10:53:41;;;;;;;0.35;0.35;;;;;;;21.51;38.63;97346.94;5074094;28;20044;-66
2022/04/27 10:56:26;;;;;;;0.57;0.52;;;;;;;21.31;38.82;97364.50;5074097;28;20505;-65
2022/04/27 10:58:52;;;;;;;0.38;0.38;;;;;;;21.10;39.10;97381.25;5074088;28;20153;-65
2022/04/27 11:01:23;;;;;;;5.40;0.52;;;;;;;20.93;39.44;97385.75;5073892;28;20045;-65
2022/04/27 11:04:03;;;;;;;0.52;0.52;;;;;;;20.71;39.89;97394.44;5073241;28;20064;-66
2022/04/27 11:06:56;;;;;;;0.25;0.25;;;;;;;20.31;40.38;97426.22;5073848;28;20094;-65
2022/04/27 11:09:38;;;;;;;1.35;0.77;;;;;;;19.46;42.13;97446.31;5073607;28;20510;-65
2022/04/27 11:12:06;;;;;;;1.60;1.10;;;;;;;18.37;44.25;97482.78;5073518;28;20132;-68
2022/04/27 11:14:34;;;;;;;0.30;0.30;;;;;;;17.11;46.73;97534.28;5073452;28;20483;-69
2022/04/27 11:17:00;;;;;;;0.55;0.55;;;;;;;16.07;48.89;97545.56;5073765;28;20066;-66
2022/04/27 11:19:39;;;;;;;0.65;0.25;;;;;;;15.17;51.06;97539.13;5073471;28;20127;-65
2022/04/27 11:22:15;;;;;;;0.82;0.82;;;;;;;14.58;52.50;97535.63;5073248;28;20075;-66
2022/04/27 11:24:45;;;;;;;0.70;0.70;;;;;;;14.32;52.66;97552.44;5073104;28;20047;-67
2022/04/27 11:27:11;;;;;;;0.88;0.80;;;;;;;14.29;52.60;97534.50;5092199;28;20131;-66
2022/04/27 11:29:38;;;;;;;0.40;0.40;;;;;;;14.45;52.50;97537.94;5093715;28;20044;-67
2022/04/27 11:32:05;;;;;;;1.83;0.93;;;;;;;14.60;52.14;97552.72;5093832;28;20465;-68
2022/04/27 11:34:32;;;;;;;0.90;0.90;;;;;;;14.68;52.36;97544.66;5092841;28;20452;-65
2022/04/27 11:36:57;;;;;;;0.70;0.52;;;;;;;14.74;52.06;97550.09;5093301;28;20044;-66
2022/04/27 11:39:25;;;;;;;0.70;0.60;;;;;;;14.70;52.17;97578.31;5093104;28;20051;-68
2022/04/27 11:42:01;;;;;;;0.45;0.45;;;;;;;14.69;52.72;97590.50;5074371;28;20043;-66
2022/04/27 11:44:31;;;;;;;0.20;0.20;;;;;;;14.73;52.48;97592.69;5085438;28;20494;-65
2022/04/27 11:46:58;;;;;;;0.20;0.20;;;;;;;14.79;52.60;97599.81;5092288;28;20458;-64
2022/04/27 11:49:24;;;;;;;0.10;0.10;;;;;;;14.89;52.61;97597.75;5092151;28;20142;-65
2022/04/27 11:51:50;;;;;;;0.10;0.10;;;;;;;15.02;52.34;97600.94;5092161;28;20565;-64
2022/04/27 11:54:29;;;;;;;0.20;0.20;;;;;;;15.19;52.41;97603.22;5091997;28;20456;-65
2022/04/27 11:57:03;;;;;;;0.20;0.20;;;;;;;15.36;52.20;97595.28;5091985;28;20044;-66
2022/04/27 11:59:45;;;;;;;0.50;0.50;;;;;;;15.45;52.04;97605.69;5092014;28;20360;-64
2022/04/27 12:02:11;;;;;;;0.25;0.20;;;;;;;15.44;52.44;97598.50;5091957;28;20437;-65
2022/04/27 12:04:37;;;;;;;0.60;0.60;;;;;;;15.38;52.86;97597.72;5090743;28;20131;-65
2022/04/27 12:07:13;;;;;;;1.02;0.47;;;;;;;15.35;53.33;97577.00;5091526;28;20122;-64
2022/04/27 12:09:39;;;;;;;0.15;0.15;;;;;;;15.46;53.16;97590.72;5091591;28;20052;-63
2022/04/27 12:12:11;;;;;;;0.20;0.20;;;;;;;15.59;53.09;97585.28;5091607;28;20463;-64
2022/04/27 12:14:41;;;;;;;0.30;0.30;;;;;;;15.76;52.90;97589.47;5091441;28;20126;-65
2022/04/27 12:17:44;;;;;;;0.43;0.43;;;;;;;15.94;52.90;97580.41;5071247;28;20060;-65
2022/04/27 12:20:29;;;;;;;0.73;0.73;;;;;;;16.15;53.05;97544.06;5071244;28;20041;-64
2022/04/27 12:23:05;;;;;;;0.45;0.30;;;;;;;16.35;52.61;97562.28;5071237;28;20041;-65